createdAt,value
2023-05-02T00:02:27.133Z,66.75
2023-05-02T00:04:55.930Z,67.07
2023-05-02T00:07:24.862Z,67.79
2023-05-02T00:09:53.890Z,68.11
2023-05-02T00:12:23.200Z,67.83
2023-05-02T00:14:51.941Z,67.35
2023-05-02T00:17:22.408Z,67.55
2023-05-02T00:19:51.125Z,67.42
2023-05-02T00:22:19.820Z,67.53
2023-05-02T00:24:48.483Z,66.90
2023-05-02T00:27:17.370Z,67.30
2023-05-02T00:29:47.959Z,67.98
2023-05-02T00:32:17.254Z,67.46
2023-05-02T00:34:47.301Z,67.04
2023-05-02T00:37:16.089Z,67.77
2023-05-02T00:39:45.029Z,67.51
2023-05-02T00:42:13.709Z,67.55
2023-05-02T00:44:42.823Z,67.74
2023-05-02T00:47:11.850Z,68.07
2023-05-02T00:49:40.604Z,67.92
2023-05-02T00:52:10.928Z,67.31
2023-05-02T00:54:40.501Z,67.38
2023-05-02T00:57:09.671Z,67.56
2023-05-02T00:59:39.199Z,68.00
2023-05-02T01:02:32.033Z,68.02
2023-05-02T01:05:12.623Z,67.68
2023-05-02T01:08:10.020Z,67.75
2023-05-02T01:10:51.251Z,67.78
2023-05-02T01:13:25.933Z,67.57
2023-05-02T01:15:59.268Z,67.68
2023-05-02T01:18:33.814Z,68.18
2023-05-02T01:21:08.326Z,68.35
2023-05-02T01:23:55.260Z,68.46
2023-05-02T01:26:36.002Z,68.18
2023-05-02T01:29:08.841Z,68.26
2023-05-02T01:31:42.183Z,68.28
2023-05-02T01:34:13.409Z,67.56
2023-05-02T01:36:48.463Z,67.49
2023-05-02T01:39:22.770Z,67.64
2023-05-02T01:41:54.699Z,68.18
2023-05-02T01:44:27.002Z,68.16
2023-05-02T01:46:59.137Z,68.37
2023-05-02T01:49:32.478Z,68.01
2023-05-02T01:52:11.609Z,67.76
2023-05-02T01:54:42.396Z,67.56
2023-05-02T01:57:13.788Z,68.13
2023-05-02T01:59:48.567Z,67.27
2023-05-02T02:02:18.951Z,67.45
2023-05-02T02:04:51.016Z,68.23
2023-05-02T02:07:19.917Z,67.78
2023-05-02T02:09:48.894Z,68.03
2023-05-02T02:12:25.803Z,68.50
2023-05-02T02:15:04.328Z,68.48
2023-05-02T02:17:41.696Z,68.57
2023-05-02T02:20:13.523Z,68.73
2023-05-02T02:22:45.475Z,68.54
2023-05-02T02:25:17.517Z,68.29
2023-05-02T02:27:46.316Z,68.06
2023-05-02T02:30:17.005Z,67.93
2023-05-02T02:32:45.676Z,67.66
2023-05-02T02:35:14.526Z,67.73
2023-05-02T02:37:49.964Z,68.84
2023-05-02T02:40:32.728Z,68.60
2023-05-02T02:43:11.106Z,68.35
2023-05-02T02:45:57.152Z,67.99
2023-05-02T02:48:35.993Z,68.72
2023-05-02T02:51:15.943Z,68.42
2023-05-02T02:53:59.554Z,68.25
2023-05-02T02:56:37.794Z,68.24
2023-05-02T02:59:15.759Z,67.85
2023-05-02T03:01:58.085Z,68.14
2023-05-02T03:04:31.115Z,67.61
2023-05-02T03:07:01.290Z,67.63
2023-05-02T03:09:42.121Z,67.38
2023-05-02T03:12:14.918Z,67.20
2023-05-02T03:14:45.351Z,67.10
2023-05-02T03:17:15.486Z,66.78
2023-05-02T03:19:44.738Z,66.68
2023-05-02T03:22:14.410Z,66.93
2023-05-02T03:24:43.165Z,67.66
2023-05-02T03:27:13.882Z,66.55
2023-05-02T03:29:44.555Z,66.36
2023-05-02T03:32:16.821Z,65.98
2023-05-02T03:34:46.653Z,65.81
2023-05-02T03:37:16.001Z,66.10
2023-05-02T03:39:47.789Z,65.92
2023-05-02T03:42:17.136Z,65.37
2023-05-02T03:44:46.008Z,65.63
2023-05-02T03:47:16.045Z,65.38
2023-05-02T03:49:46.072Z,65.10
2023-05-02T03:52:16.357Z,65.90
2023-05-02T03:54:46.887Z,65.04
2023-05-02T03:57:16.164Z,65.60
2023-05-02T03:59:45.853Z,65.78
2023-05-02T04:02:25.406Z,65.65
2023-05-02T04:04:54.359Z,66.72
2023-05-02T04:07:25.973Z,66.12
2023-05-02T04:10:04.524Z,66.64
2023-05-02T04:12:37.884Z,66.68
2023-05-02T04:15:08.670Z,66.60
2023-05-02T04:17:38.859Z,65.91
2023-05-02T04:20:10.818Z,66.07
2023-05-02T04:22:44.308Z,66.05
2023-05-02T04:25:14.133Z,65.49
2023-05-02T04:27:44.583Z,66.15
2023-05-02T04:30:16.944Z,65.44
2023-05-02T04:32:54.049Z,65.92
2023-05-02T04:35:23.393Z,65.33
2023-05-02T04:37:52.131Z,65.00
2023-05-02T04:40:22.048Z,65.17
2023-05-02T04:42:56.530Z,66.01
2023-05-02T04:45:29.995Z,65.67
2023-05-02T04:48:00.351Z,65.68
2023-05-02T04:50:29.657Z,65.40
2023-05-02T04:52:58.325Z,65.63
2023-05-02T04:55:28.364Z,65.42
2023-05-02T04:57:57.617Z,65.41
2023-05-02T05:00:27.777Z,65.45
2023-05-02T05:02:57.961Z,65.00
2023-05-02T05:05:29.270Z,64.40
2023-05-02T05:07:58.239Z,65.02
2023-05-02T05:10:30.089Z,64.38
2023-05-02T05:12:59.014Z,64.61
2023-05-02T05:15:28.111Z,63.71
2023-05-02T05:18:00.317Z,64.89
2023-05-02T05:20:30.990Z,64.98
2023-05-02T05:23:02.567Z,64.72
2023-05-02T05:25:32.510Z,64.57
2023-05-02T05:28:01.825Z,64.50
2023-05-02T05:30:32.287Z,64.45
2023-05-02T05:33:02.772Z,64.46
2023-05-02T05:35:33.405Z,64.64
2023-05-02T05:38:04.578Z,64.63
2023-05-02T05:40:36.612Z,64.24
2023-05-02T05:43:05.941Z,64.31
2023-05-02T05:45:38.416Z,64.37
2023-05-02T05:48:08.528Z,63.81
2023-05-02T05:50:44.510Z,64.51
2023-05-02T05:53:13.903Z,63.96
2023-05-02T05:55:44.062Z,63.51
2023-05-02T05:58:13.257Z,63.07
2023-05-02T06:00:43.544Z,63.30
2023-05-02T06:03:12.453Z,63.97
2023-05-02T06:05:43.599Z,63.88
2023-05-02T06:08:12.423Z,63.88
2023-05-02T06:10:41.742Z,63.74
2023-05-02T06:13:11.720Z,62.67
2023-05-02T06:15:50.763Z,61.59
2023-05-02T06:18:25.119Z,62.69
2023-05-02T06:20:58.252Z,62.64
2023-05-02T06:23:27.371Z,62.28
2023-05-02T06:25:56.059Z,61.98
2023-05-02T06:28:24.797Z,63.05
2023-05-02T06:31:00.281Z,61.84
2023-05-02T06:33:32.708Z,63.55
2023-05-02T06:36:03.114Z,63.23
2023-05-02T06:38:32.570Z,62.40
2023-05-02T06:41:01.254Z,61.89
2023-05-02T06:43:29.886Z,63.10
2023-05-02T06:45:58.864Z,63.40
2023-05-02T06:48:27.586Z,64.91
2023-05-02T06:50:56.388Z,64.00
2023-05-02T06:53:26.957Z,62.58
2023-05-02T06:55:55.971Z,61.95
2023-05-02T06:58:25.102Z,59.82
2023-05-02T07:00:53.808Z,60.46
2023-05-02T07:03:22.545Z,60.51
2023-05-02T07:05:51.593Z,61.18
2023-05-02T07:08:22.548Z,61.07
2023-05-02T07:10:53.090Z,61.29
2023-05-02T07:13:21.764Z,60.17
2023-05-02T07:15:50.517Z,60.16
2023-05-02T07:18:19.504Z,62.18
2023-05-02T07:20:48.320Z,62.01
2023-05-02T07:23:17.052Z,63.55
2023-05-02T07:25:45.788Z,62.88
2023-05-02T07:28:15.975Z,63.71
2023-05-02T07:30:44.599Z,63.11
2023-05-02T07:33:13.394Z,62.94
2023-05-02T07:35:42.257Z,62.36
2023-05-02T07:38:11.051Z,61.61
2023-05-02T07:40:39.833Z,62.58
2023-05-02T07:43:09.945Z,60.80
2023-05-02T07:45:41.441Z,61.38
2023-05-02T07:48:10.312Z,60.89
2023-05-02T07:50:39.116Z,60.80
2023-05-02T07:53:07.922Z,60.44
2023-05-02T07:55:36.646Z,60.77
2023-05-02T07:58:05.553Z,59.42
2023-05-02T08:00:34.687Z,59.44
2023-05-02T08:03:06.180Z,59.39
2023-05-02T08:05:35.195Z,59.34
2023-05-02T08:08:04.215Z,57.84
2023-05-02T08:10:33.018Z,59.65
2023-05-02T08:13:01.887Z,59.51
2023-05-02T08:15:32.054Z,57.49
2023-05-02T08:18:01.251Z,55.97
2023-05-02T08:20:31.568Z,55.42
2023-05-02T08:23:00.649Z,56.81
2023-05-02T08:25:30.542Z,56.38
2023-05-02T08:27:59.185Z,56.00
2023-05-02T08:30:28.203Z,55.78
2023-05-02T08:32:57.146Z,57.46
2023-05-02T08:35:25.967Z,57.65
2023-05-02T08:37:56.120Z,57.66
2023-05-02T08:40:38.271Z,56.86
2023-05-02T08:43:14.417Z,56.88
2023-05-02T08:45:45.970Z,55.95
2023-05-02T08:48:16.951Z,57.14
2023-05-02T08:50:48.523Z,56.19
2023-05-02T08:53:20.590Z,54.88
2023-05-02T08:55:51.092Z,54.50
2023-05-02T08:58:19.756Z,54.93
2023-05-02T09:00:52.241Z,54.93
2023-05-02T09:03:31.779Z,53.77
2023-05-02T09:06:08.841Z,54.17
2023-05-02T09:08:39.427Z,51.64
2023-05-02T09:11:10.513Z,49.16
2023-05-02T09:13:42.102Z,49.88
2023-05-02T09:16:14.238Z,51.17
2023-05-02T09:18:46.743Z,50.47
2023-05-02T09:21:20.643Z,50.34
2023-05-02T09:23:54.109Z,51.29
2023-05-02T09:26:28.375Z,51.55
2023-05-02T09:28:59.331Z,52.18
2023-05-02T09:34:12.355Z,52.50
2023-05-02T09:36:43.295Z,51.37
2023-05-02T09:39:15.459Z,52.18
2023-05-02T09:41:46.883Z,50.05
2023-05-02T09:44:18.534Z,51.05
2023-05-02T09:46:51.197Z,51.28
2023-05-02T09:49:21.057Z,51.62
2023-05-02T09:51:50.710Z,52.10
2023-05-02T09:57:13.304Z,52.01
2023-05-02T09:59:42.541Z,52.99
2023-05-02T10:02:13.570Z,51.81
2023-05-02T10:04:43.596Z,52.71
2023-05-02T10:07:14.392Z,52.26
2023-05-02T10:09:46.110Z,53.72
2023-05-02T10:12:18.847Z,53.39
2023-05-02T10:14:55.255Z,53.44
2023-05-02T10:17:32.340Z,53.18
2023-05-02T10:20:06.531Z,52.48
2023-05-02T10:22:36.936Z,54.51
2023-05-02T10:25:06.677Z,54.51
2023-05-02T10:27:37.881Z,52.28
2023-05-02T10:30:09.580Z,51.50
2023-05-02T10:32:39.958Z,52.70
2023-05-02T10:35:09.523Z,53.30
2023-05-02T10:37:42.016Z,55.01
2023-05-02T10:40:13.692Z,52.58
2023-05-02T10:42:47.587Z,53.33
2023-05-02T10:45:33.568Z,53.53
2023-05-02T10:48:17.324Z,53.52
2023-05-02T10:50:48.509Z,52.48
2023-05-02T10:53:32.485Z,51.57
2023-05-02T10:56:22.369Z,52.14
2023-05-02T10:58:54.624Z,51.89
2023-05-02T11:01:40.148Z,52.78
2023-05-02T11:04:11.548Z,53.60
2023-05-02T11:07:19.271Z,55.07
2023-05-02T11:09:48.014Z,53.73
2023-05-02T11:12:48.594Z,50.54
2023-05-02T11:16:00.337Z,49.31
2023-05-02T11:18:49.021Z,47.23
2023-05-02T11:21:29.834Z,48.40
2023-05-02T11:24:40.087Z,50.31
2023-05-02T11:27:39.949Z,50.56
2023-05-02T11:30:10.248Z,49.17
2023-05-02T11:33:20.282Z,49.02
2023-05-02T11:35:50.912Z,47.71
2023-05-02T11:38:24.043Z,47.16
2023-05-02T11:41:01.041Z,47.42
2023-05-02T11:43:32.222Z,47.77
2023-05-02T11:46:03.058Z,47.76
2023-05-02T11:48:33.603Z,45.25
2023-05-02T11:51:07.309Z,44.85
2023-05-02T11:53:42.658Z,47.22
2023-05-02T11:56:11.500Z,47.64
2023-05-02T11:58:40.174Z,48.49
2023-05-02T12:01:16.407Z,48.79
2023-05-02T12:03:48.612Z,49.78
2023-05-02T12:06:20.351Z,50.47
2023-05-02T12:08:49.753Z,51.00
2023-05-02T12:11:18.875Z,47.03
2023-05-02T12:13:50.111Z,46.89
2023-05-02T12:16:20.480Z,46.94
2023-05-02T12:18:50.905Z,46.26
2023-05-02T12:21:20.812Z,45.85
2023-05-02T12:23:49.845Z,46.64
2023-05-02T12:26:19.887Z,46.96
2023-05-02T12:28:54.696Z,47.14
2023-05-02T12:31:24.225Z,46.76
2023-05-02T12:33:57.688Z,47.71
2023-05-02T12:36:28.576Z,49.60
2023-05-02T12:39:00.442Z,49.59
2023-05-02T12:41:38.255Z,50.36
2023-05-02T12:44:08.219Z,50.69
2023-05-02T12:46:37.163Z,50.35
2023-05-02T12:49:09.648Z,50.61
2023-05-02T12:51:39.826Z,51.32
2023-05-02T12:54:08.701Z,50.96
2023-05-02T12:56:46.673Z,50.69
2023-05-02T12:59:30.008Z,52.39
2023-05-02T13:01:59.572Z,49.97
2023-05-02T13:04:38.889Z,51.59
2023-05-02T13:07:07.757Z,48.11
2023-05-02T13:09:36.865Z,47.38
2023-05-02T13:12:06.207Z,46.51
2023-05-02T13:14:35.075Z,45.80
2023-05-02T13:17:04.132Z,46.92
2023-05-02T13:19:32.985Z,47.11
2023-05-02T13:22:03.032Z,48.80
2023-05-02T13:24:31.919Z,46.52
2023-05-02T13:27:00.570Z,45.94
2023-05-02T13:29:29.369Z,47.59
2023-05-02T13:31:58.251Z,46.85
2023-05-02T13:34:28.491Z,46.13
2023-05-02T13:36:57.433Z,46.91
2023-05-02T13:39:27.926Z,48.31
2023-05-02T13:41:56.918Z,47.57
2023-05-02T13:44:25.813Z,48.47
2023-05-02T13:46:54.469Z,47.58
2023-05-02T13:49:24.024Z,48.27
2023-05-02T13:51:53.227Z,49.02
2023-05-02T13:54:22.052Z,48.60
2023-05-02T13:56:52.081Z,48.63
2023-05-02T13:59:20.777Z,48.92
2023-05-02T14:01:49.632Z,49.63
2023-05-02T14:04:18.614Z,49.62
2023-05-02T14:06:47.436Z,46.81
2023-05-02T14:09:17.121Z,42.72
2023-05-02T14:11:47.305Z,41.26
2023-05-02T14:14:17.584Z,38.88
2023-05-02T14:16:48.232Z,38.35
2023-05-02T14:19:19.423Z,38.42
2023-05-02T14:21:48.212Z,36.00
2023-05-02T14:24:18.610Z,35.79
2023-05-02T14:26:47.650Z,35.85
2023-05-02T14:29:18.578Z,38.35
2023-05-02T14:31:47.407Z,37.66
2023-05-02T14:34:16.220Z,37.43
2023-05-02T14:36:44.860Z,39.57
2023-05-02T14:39:13.534Z,41.10
2023-05-02T14:41:42.242Z,42.38
2023-05-02T14:44:10.913Z,44.37
2023-05-02T14:46:41.201Z,46.25
2023-05-02T14:49:09.894Z,48.66
2023-05-02T14:51:39.994Z,50.42
2023-05-02T14:54:08.781Z,52.05
2023-05-02T14:56:37.612Z,53.58
2023-05-02T14:59:06.309Z,54.33
2023-05-02T15:01:35.155Z,55.45
2023-05-02T15:04:07.764Z,55.99
2023-05-02T15:06:37.524Z,57.45
2023-05-02T15:09:06.427Z,59.27
2023-05-02T15:11:35.248Z,59.13
2023-05-02T15:14:03.942Z,58.90
2023-05-02T15:16:32.842Z,59.65
2023-05-02T15:19:01.494Z,59.25
2023-05-02T15:21:32.102Z,58.61
2023-05-02T15:24:00.766Z,59.08
2023-05-02T15:26:29.802Z,58.28
2023-05-02T15:28:58.449Z,57.71
2023-05-02T15:31:27.993Z,57.17
2023-05-02T15:33:56.899Z,57.29
2023-05-02T15:36:29.158Z,57.59
2023-05-02T15:38:59.675Z,57.69
2023-05-02T15:41:28.309Z,58.08
2023-05-02T15:43:58.673Z,57.62
2023-05-02T15:46:28.655Z,58.72
2023-05-02T15:48:58.436Z,58.61
2023-05-02T15:51:27.536Z,58.39
2023-05-02T15:53:58.514Z,58.09
2023-05-02T15:56:27.473Z,57.88
2023-05-02T15:58:56.691Z,58.30
2023-05-02T16:01:25.875Z,58.44
2023-05-02T16:03:54.700Z,59.27
2023-05-02T16:06:23.879Z,59.21
2023-05-02T16:08:52.782Z,58.91
2023-05-02T16:11:23.167Z,59.47
2023-05-02T16:13:52.444Z,59.08
2023-05-02T16:16:21.387Z,59.27
2023-05-02T16:18:50.402Z,58.84
2023-05-02T16:21:19.127Z,59.13
2023-05-02T16:23:48.006Z,57.87
2023-05-02T16:26:16.630Z,57.36
2023-05-02T16:28:47.118Z,57.45
2023-05-02T16:31:16.127Z,57.14
2023-05-02T16:33:45.057Z,57.30
2023-05-02T16:36:14.888Z,56.83
2023-05-02T16:38:43.983Z,57.12
2023-05-02T16:41:13.300Z,56.91
2023-05-02T16:43:42.625Z,56.90
2023-05-02T16:46:13.127Z,57.32
2023-05-02T16:48:44.053Z,57.35
2023-05-02T16:51:16.899Z,57.42
2023-05-02T16:53:46.786Z,57.14
2023-05-02T16:56:16.292Z,57.49
2023-05-02T16:58:45.149Z,56.93
2023-05-02T17:01:17.561Z,57.13
2023-05-02T17:03:46.888Z,57.29
2023-05-02T17:06:18.040Z,58.77
2023-05-02T17:08:49.874Z,59.40
2023-05-02T17:11:18.897Z,60.01
2023-05-02T17:13:49.781Z,60.72
2023-05-02T17:16:20.798Z,60.03
2023-05-02T17:18:49.830Z,60.97
2023-05-02T17:21:18.667Z,60.69
2023-05-02T17:23:47.475Z,61.63
2023-05-02T17:26:16.640Z,61.40
2023-05-02T17:28:46.061Z,60.45
2023-05-02T17:31:15.548Z,60.70
2023-05-02T17:33:46.581Z,60.90
2023-05-02T17:36:15.501Z,59.83
2023-05-02T17:38:45.151Z,59.59
2023-05-02T17:41:15.044Z,59.13
2023-05-02T17:43:44.096Z,59.08
2023-05-02T17:46:13.589Z,59.11
2023-05-02T17:48:46.493Z,58.69
2023-05-02T17:51:15.344Z,58.76
2023-05-02T17:53:43.985Z,58.40
2023-05-02T17:56:12.969Z,57.43
2023-05-02T17:58:41.876Z,57.64
2023-05-02T18:01:12.168Z,57.97
2023-05-02T18:03:41.383Z,58.14
2023-05-02T18:06:17.569Z,57.75
2023-05-02T18:08:46.783Z,57.07
2023-05-02T18:11:17.222Z,57.19
2023-05-02T18:13:46.977Z,56.86
2023-05-02T18:16:15.782Z,56.86
2023-05-02T18:18:44.597Z,56.83
2023-05-02T18:21:23.686Z,57.01
2023-05-02T18:23:52.956Z,57.04
2023-05-02T18:26:21.635Z,57.05
2023-05-02T18:28:53.489Z,57.12
2023-05-02T18:31:23.931Z,57.87
2023-05-02T18:33:55.119Z,57.39
2023-05-02T18:36:30.397Z,58.07
2023-05-02T18:39:00.357Z,57.40
2023-05-02T18:41:29.073Z,57.65
2023-05-02T18:43:59.364Z,57.52
2023-05-02T18:46:29.611Z,57.46
2023-05-02T18:48:58.536Z,58.22
2023-05-02T18:51:29.280Z,57.70
2023-05-02T18:53:58.035Z,57.44
2023-05-02T18:56:27.132Z,58.33
2023-05-02T18:58:56.684Z,57.60
2023-05-02T19:01:26.244Z,57.92
2023-05-02T19:03:55.249Z,57.46
2023-05-02T19:06:24.518Z,55.81
2023-05-02T19:08:55.416Z,56.33
2023-05-02T19:11:24.644Z,55.91
2023-05-02T19:13:53.554Z,56.08
2023-05-02T19:16:25.659Z,57.05
2023-05-02T19:18:56.057Z,56.38
2023-05-02T19:21:25.164Z,57.04
2023-05-02T19:23:56.676Z,56.52
2023-05-02T19:26:25.922Z,56.29
2023-05-02T19:28:54.977Z,56.50
2023-05-02T19:31:24.163Z,56.65
2023-05-02T19:33:53.042Z,57.02
2023-05-02T19:36:23.098Z,56.78
2023-05-02T19:38:57.927Z,56.62
2023-05-02T19:41:27.042Z,56.78
2023-05-02T19:43:58.856Z,56.70
2023-05-02T19:46:28.120Z,57.96
2023-05-02T19:48:56.948Z,57.88
2023-05-02T19:51:28.124Z,59.00
2023-05-02T19:53:59.080Z,59.26
2023-05-02T19:56:28.896Z,59.13
2023-05-02T19:58:58.710Z,58.94
2023-05-02T20:01:29.275Z,59.66
2023-05-02T20:03:57.973Z,59.99
2023-05-02T20:06:28.567Z,59.56
2023-05-02T20:08:59.004Z,59.03
2023-05-02T20:11:32.808Z,59.19
2023-05-02T20:14:01.613Z,60.11
2023-05-02T20:16:34.114Z,59.08
2023-05-02T20:19:02.859Z,59.08
2023-05-02T20:21:31.499Z,58.64
2023-05-02T20:24:01.665Z,58.13
2023-05-02T20:26:31.367Z,57.53
2023-05-02T20:29:00.135Z,57.03
2023-05-02T20:31:28.931Z,56.80
2023-05-02T20:33:57.664Z,57.41
2023-05-02T20:36:27.785Z,57.03
2023-05-02T20:38:57.936Z,56.38
2023-05-02T20:41:28.101Z,55.88
2023-05-02T20:43:57.186Z,56.76
2023-05-02T20:46:25.989Z,56.40
2023-05-02T20:48:54.758Z,56.03
2023-05-02T20:51:23.503Z,56.08
2023-05-02T20:53:52.208Z,56.30
2023-05-02T20:56:21.082Z,55.18
2023-05-02T20:58:51.183Z,54.77
2023-05-02T21:01:19.961Z,55.70
2023-05-02T21:03:49.380Z,55.05
2023-05-02T21:06:20.949Z,55.43
2023-05-02T21:08:49.730Z,55.66
2023-05-02T21:11:18.382Z,54.97
2023-05-02T21:13:47.172Z,54.74
2023-05-02T21:16:19.112Z,54.26
2023-05-02T21:18:48.671Z,54.19
2023-05-02T21:21:17.444Z,54.62
2023-05-02T21:23:46.170Z,54.97
2023-05-02T21:26:14.921Z,55.82
2023-05-02T21:28:43.698Z,55.40
2023-05-02T21:31:12.702Z,55.22
2023-05-02T21:33:42.858Z,55.38
2023-05-02T21:36:12.192Z,55.28
2023-05-02T21:38:40.859Z,55.97
2023-05-02T21:41:10.200Z,56.75
2023-05-02T21:43:41.636Z,56.84
2023-05-02T21:46:12.845Z,57.19
2023-05-02T21:48:43.023Z,57.07
2023-05-02T21:51:14.234Z,57.01
2023-05-02T21:53:43.404Z,58.20
2023-05-02T21:56:12.530Z,58.84
2023-05-02T21:58:41.137Z,59.27
2023-05-02T22:01:10.461Z,59.53
2023-05-02T22:03:39.279Z,59.57
2023-05-02T22:06:09.773Z,58.69
2023-05-02T22:08:38.533Z,58.94
2023-05-02T22:11:09.264Z,59.16
2023-05-02T22:13:38.265Z,59.87
2023-05-02T22:16:08.170Z,59.87
2023-05-02T22:18:37.054Z,60.44
2023-05-02T22:21:08.321Z,60.66
2023-05-02T22:23:38.408Z,60.58
2023-05-02T22:26:07.229Z,60.87
2023-05-02T22:28:45.749Z,61.83
2023-05-02T22:31:15.376Z,62.13
2023-05-02T22:33:49.623Z,62.07
2023-05-02T22:36:18.741Z,61.82
2023-05-02T22:38:48.944Z,61.73
2023-05-02T22:41:17.665Z,62.13
2023-05-02T22:43:46.564Z,62.40
2023-05-02T22:46:15.220Z,61.68
2023-05-02T22:48:43.945Z,61.56
2023-05-02T22:51:12.700Z,61.09
2023-05-02T22:53:41.382Z,61.22
2023-05-02T22:56:11.468Z,60.94
2023-05-02T22:58:40.218Z,61.52
2023-05-02T23:01:09.176Z,61.57
2023-05-02T23:03:38.110Z,62.18
2023-05-02T23:06:07.182Z,61.96
2023-05-02T23:08:35.931Z,61.58
2023-05-02T23:11:04.695Z,62.01
2023-05-02T23:13:34.798Z,63.59
2023-05-02T23:16:04.443Z,63.71
2023-05-02T23:18:33.265Z,63.25
2023-05-02T23:21:01.897Z,62.96
2023-05-02T23:23:30.543Z,62.25
2023-05-02T23:26:00.347Z,63.28
2023-05-02T23:28:29.051Z,62.90
2023-05-02T23:30:59.562Z,62.95
2023-05-02T23:33:28.459Z,63.51
2023-05-02T23:35:57.955Z,64.09
2023-05-02T23:38:27.240Z,63.98
2023-05-02T23:40:56.669Z,63.58
2023-05-02T23:43:25.894Z,62.93
2023-05-02T23:45:54.695Z,63.63
2023-05-02T23:48:24.832Z,62.26
2023-05-02T23:50:54.201Z,62.46
2023-05-02T23:53:22.888Z,62.60
2023-05-02T23:55:52.163Z,63.00
2023-05-02T23:58:20.837Z,63.47
